GDN weather

Gdańsk Lech Wałęsa Airport
Gdańsk, Pomerania, Poland

Public forecast

Using degrees Celsius for public forecast. Weather courtesy of forecast.io.

Current aviation weather report (METAR) for Gdańsk Lech Wałęsa Airport

Retrieved 2019/11/15 16:30 UTC (30 minutes ago):

EPGD 151630Z 08010KT 6000 OVC004 08/07 Q1014

Aviation forecast (TAF) for Gdańsk Lech Wałęsa Airport

Retrieved 2019/11/15 12:33 UTC (4 hours ago):

TAF TAF EPGD 151130Z 1512/1612 10010KT 6000 OVC004 BECMG 1512/1515 3500 BR TEMPO 1512/1515 1500 BR BKN002 BECMG 1515/1518 1200 BR BKN002 BECMG 1518/1520 0700 FG TEMPO 1519/1607 0300 FG OVC001 BECMG 1603/1606 16010KT BECMG 1608/1611 6000 SCT007 SCT018